createdAt,value
2022-10-11T00:00:10.111Z,428.52
2022-10-11T00:02:36.668Z,441.98
2022-10-11T00:05:03.676Z,435.77
2022-10-11T00:07:30.418Z,440.35
2022-10-11T00:09:57.036Z,450.08
2022-10-11T00:12:23.572Z,437.48
2022-10-11T00:14:50.225Z,437.08
2022-10-11T00:17:16.796Z,425.83
2022-10-11T00:19:43.347Z,423.77
2022-10-11T00:22:10.053Z,440.55
2022-10-11T00:24:36.650Z,429.60
2022-10-11T00:33:08.873Z,432.25
2022-10-11T00:35:35.966Z,410.67
2022-10-11T00:38:02.967Z,425.60
2022-10-11T00:40:29.962Z,436.80
2022-10-11T00:42:56.858Z,434.25
2022-10-11T00:45:26.674Z,419.60
2022-10-11T00:48:00.674Z,416.60
2022-10-11T00:50:31.544Z,410.25
2022-10-11T00:53:03.482Z,431.55
2022-10-11T00:55:36.731Z,418.20
2022-10-11T00:58:03.613Z,424.95
2022-10-11T01:00:30.232Z,426.08
2022-10-11T01:02:57.083Z,438.20
2022-10-11T01:05:29.617Z,437.10
2022-10-11T01:07:59.098Z,424.90
2022-10-11T01:10:26.710Z,428.92
2022-10-11T01:13:25.508Z,428.90
2022-10-11T01:16:07.971Z,433.35
2022-10-11T01:18:44.273Z,447.55
2022-10-11T01:21:10.914Z,442.48
2022-10-11T01:23:46.397Z,432.67
2022-10-11T01:26:41.462Z,453.45
2022-10-11T01:29:26.427Z,437.80
2022-10-11T01:32:03.816Z,430.23
2022-10-11T01:34:52.986Z,432.77
2022-10-11T01:37:28.319Z,435.10
2022-10-11T01:40:02.522Z,429.80
2022-10-11T01:42:30.227Z,422.52
2022-10-11T01:44:58.821Z,434.55
2022-10-11T01:47:26.193Z,416.58
2022-10-11T01:49:57.150Z,436.25
2022-10-11T01:52:26.605Z,436.88
2022-10-11T01:55:09.891Z,431.05
2022-10-11T01:57:42.882Z,427.50
2022-10-11T02:00:22.795Z,441.65
2022-10-11T02:03:19.491Z,413.92
2022-10-11T02:06:01.135Z,434.13
2022-10-11T02:08:53.110Z,416.83
2022-10-11T02:11:27.635Z,425.20
2022-10-11T02:14:03.483Z,420.10
2022-10-11T02:17:04.020Z,419.95
2022-10-11T02:19:36.754Z,413.63
2022-10-11T02:22:08.411Z,418.33
2022-10-11T02:24:38.151Z,415.88
2022-10-11T02:27:06.112Z,414.50
2022-10-11T02:29:37.819Z,417.83
2022-10-11T02:32:05.967Z,407.08
2022-10-11T02:34:40.102Z,413.27
2022-10-11T02:37:21.561Z,423.02
2022-10-11T02:40:02.520Z,417.85
2022-10-11T02:42:37.117Z,411.85
2022-10-11T02:45:12.099Z,422.70
2022-10-11T02:47:40.813Z,426.83
2022-10-11T02:50:07.833Z,433.27
2022-10-11T02:52:34.391Z,418.70
2022-10-11T02:55:00.939Z,416.77
2022-10-11T02:57:27.471Z,434.80
2022-10-11T02:59:54.063Z,439.85
2022-10-11T03:02:20.735Z,427.27
2022-10-11T03:04:47.540Z,452.98
2022-10-11T03:07:14.745Z,455.38
2022-10-11T03:09:41.376Z,441.42
2022-10-11T03:12:08.263Z,444.75
2022-10-11T03:14:34.799Z,443.23
2022-10-11T03:17:23.851Z,434.40
2022-10-11T03:19:48.325Z,421.57
2022-10-11T03:22:14.897Z,437.08
2022-10-11T03:24:41.488Z,427.67
2022-10-11T03:27:08.049Z,421.42
2022-10-11T03:29:34.599Z,410.08
2022-10-11T03:32:01.239Z,428.98
2022-10-11T03:34:27.877Z,435.60
2022-10-11T03:36:54.510Z,432.58
2022-10-11T03:39:22.705Z,434.13
2022-10-11T03:41:49.365Z,438.27
2022-10-11T03:44:16.005Z,432.70
2022-10-11T03:46:42.602Z,428.88
2022-10-11T03:49:09.225Z,409.48
2022-10-11T03:51:36.418Z,429.75
2022-10-11T03:54:03.100Z,424.42
2022-10-11T03:56:29.636Z,429.15
2022-10-11T03:58:56.278Z,426.73
2022-10-11T04:01:22.893Z,423.60
2022-10-11T04:03:49.539Z,401.90
2022-10-11T04:06:16.189Z,422.73
2022-10-11T04:08:42.793Z,398.15
2022-10-11T04:11:09.420Z,411.50
2022-10-11T04:13:36.434Z,403.60
2022-10-11T04:16:03.461Z,407.50
2022-10-11T04:18:30.365Z,412.25
2022-10-11T04:20:56.961Z,416.90
2022-10-11T04:23:23.667Z,421.50
2022-10-11T04:25:50.333Z,414.52
2022-10-11T04:28:16.919Z,414.20
2022-10-11T04:30:43.825Z,397.10
2022-10-11T04:33:11.517Z,420.33
2022-10-11T04:35:38.385Z,424.55
2022-10-11T04:38:05.000Z,411.20
2022-10-11T04:40:32.550Z,403.10
2022-10-11T04:42:59.111Z,417.50
2022-10-11T04:45:26.297Z,401.40
2022-10-11T04:47:52.891Z,391.40
2022-10-11T04:50:19.557Z,403.13
2022-10-11T04:52:46.813Z,396.55
2022-10-11T04:55:14.178Z,383.07
2022-10-11T04:57:40.768Z,390.25
2022-10-11T05:00:07.986Z,394.63
2022-10-11T05:02:34.627Z,390.58
2022-10-11T05:05:01.262Z,390.08
2022-10-11T05:07:27.844Z,379.80
2022-10-11T05:09:54.602Z,394.55
2022-10-11T05:12:21.158Z,383.97
2022-10-11T05:14:47.761Z,390.45
2022-10-11T05:17:14.381Z,380.80
2022-10-11T05:19:41.043Z,394.77
2022-10-11T05:22:07.638Z,367.20
2022-10-11T05:24:34.302Z,400.57
2022-10-11T05:27:03.323Z,393.13
2022-10-11T05:29:30.259Z,395.27
2022-10-11T05:31:56.905Z,392.02
2022-10-11T05:34:23.406Z,402.03
2022-10-11T05:36:50.065Z,400.75
2022-10-11T05:39:16.601Z,400.73
2022-10-11T05:41:43.280Z,413.65
2022-10-11T05:44:09.870Z,395.85
2022-10-11T05:46:36.524Z,400.67
2022-10-11T05:49:03.219Z,408.88
2022-10-11T05:51:29.848Z,379.92
2022-10-11T05:53:56.454Z,414.80
2022-10-11T05:56:24.994Z,401.98
2022-10-11T05:58:52.281Z,401.85
2022-10-11T06:01:23.138Z,413.45
2022-10-11T06:03:50.717Z,405.90
2022-10-11T06:06:17.964Z,382.35
2022-10-11T06:08:45.453Z,396.05
2022-10-11T06:11:13.319Z,399.92
2022-10-11T06:13:40.855Z,367.95
2022-10-11T06:16:08.234Z,380.38
2022-10-11T06:18:35.001Z,383.43
2022-10-11T06:21:01.826Z,373.45
2022-10-11T06:23:28.546Z,387.63
2022-10-11T06:26:11.437Z,372.77
2022-10-11T06:28:58.949Z,389.63
2022-10-11T06:31:25.806Z,377.08
2022-10-11T06:33:52.444Z,381.17
2022-10-11T06:36:19.173Z,379.20
2022-10-11T06:38:45.850Z,371.63
2022-10-11T06:41:21.095Z,366.20
2022-10-11T06:43:49.894Z,364.42
2022-10-11T06:46:17.863Z,377.98
2022-10-11T06:48:45.897Z,354.05
2022-10-11T06:51:14.456Z,370.80
2022-10-11T06:53:41.258Z,372.48
2022-10-11T06:56:11.415Z,369.48
2022-10-11T06:58:39.303Z,366.20
2022-10-11T07:01:10.409Z,355.35
2022-10-11T07:03:37.538Z,362.38
2022-10-11T07:06:10.617Z,341.55
2022-10-11T07:08:38.252Z,352.02
2022-10-11T07:11:17.891Z,325.17
2022-10-11T07:13:49.864Z,336.65
2022-10-11T07:16:16.925Z,335.30
2022-10-11T07:18:43.570Z,345.50
2022-10-11T07:21:15.674Z,345.17
2022-10-11T07:23:42.700Z,343.05
2022-10-11T07:26:10.979Z,342.77
2022-10-11T07:28:38.549Z,359.27
2022-10-11T07:31:26.930Z,321.00
2022-10-11T07:33:53.809Z,326.33
2022-10-11T07:36:20.650Z,307.60
2022-10-11T07:38:50.345Z,338.77
2022-10-11T07:41:17.452Z,317.52
2022-10-11T07:43:46.910Z,321.92
2022-10-11T07:46:14.217Z,329.20
2022-10-11T07:48:40.925Z,305.50
2022-10-11T07:51:11.623Z,302.30
2022-10-11T07:53:42.959Z,301.35
2022-10-11T07:56:14.895Z,301.50
2022-10-11T07:58:42.588Z,291.57
2022-10-11T08:01:10.619Z,276.73
2022-10-11T08:03:38.082Z,276.80
2022-10-11T08:06:07.698Z,247.07
2022-10-11T08:08:35.556Z,280.58
2022-10-11T08:11:02.266Z,258.02
2022-10-11T08:13:29.054Z,266.42
2022-10-11T08:15:55.633Z,258.73
2022-10-11T08:18:22.403Z,275.90
2022-10-11T08:20:48.963Z,263.00
2022-10-11T08:23:16.856Z,287.25
2022-10-11T08:25:47.508Z,275.38
2022-10-11T08:28:18.533Z,259.60
2022-10-11T08:30:54.267Z,262.35
2022-10-11T08:33:23.015Z,262.92
2022-10-11T08:35:50.475Z,261.83
2022-10-11T08:38:18.002Z,262.83
2022-10-11T08:40:49.596Z,297.10
2022-10-11T08:43:28.366Z,271.30
2022-10-11T08:45:58.554Z,265.90
2022-10-11T08:48:41.989Z,258.23
2022-10-11T08:51:24.930Z,265.63
2022-10-11T08:54:12.567Z,258.48
2022-10-11T08:56:41.746Z,247.02
2022-10-11T08:59:11.229Z,235.13
2022-10-11T09:01:44.638Z,260.83
2022-10-11T09:04:14.745Z,274.70
2022-10-11T09:06:55.631Z,252.30
2022-10-11T09:09:48.850Z,234.63
2022-10-11T09:12:32.303Z,231.70
2022-10-11T09:15:03.169Z,235.45
2022-10-11T09:17:42.877Z,234.00
2022-10-11T09:20:18.169Z,251.18
2022-10-11T09:23:11.598Z,239.52
2022-10-11T09:25:49.392Z,214.77
2022-10-11T09:28:35.147Z,233.68
2022-10-11T09:31:01.954Z,219.82
2022-10-11T09:33:31.369Z,220.70
2022-10-11T09:35:58.608Z,204.83
2022-10-11T09:38:37.345Z,196.65
2022-10-11T09:41:15.029Z,208.13
2022-10-11T09:43:46.046Z,195.38
2022-10-11T09:46:30.865Z,193.05
2022-10-11T09:49:00.714Z,200.23
2022-10-11T09:51:28.120Z,191.35
2022-10-11T09:54:04.309Z,190.87
2022-10-11T09:56:33.673Z,186.43
2022-10-11T09:59:21.971Z,166.23
2022-10-11T10:01:49.044Z,171.23
2022-10-11T10:04:18.954Z,157.55
2022-10-11T10:06:45.678Z,155.82
2022-10-11T10:09:24.586Z,160.05
2022-10-11T10:11:51.685Z,145.98
2022-10-11T10:14:30.435Z,145.88
2022-10-11T10:17:06.554Z,157.80
2022-10-11T10:19:44.710Z,157.33
2022-10-11T10:22:21.210Z,162.53
2022-10-11T10:24:50.566Z,165.60
2022-10-11T10:27:21.605Z,155.38
2022-10-11T10:30:09.483Z,148.45
2022-10-11T10:32:57.872Z,152.70
2022-10-11T10:35:27.508Z,162.05
2022-10-11T10:38:01.011Z,169.57
2022-10-11T10:40:37.642Z,160.80
2022-10-11T10:43:04.354Z,143.50
2022-10-11T10:46:28.905Z,133.35
2022-10-11T10:52:03.159Z,147.43
2022-10-11T10:54:35.478Z,143.93
2022-10-11T10:57:11.313Z,121.93
2022-10-11T10:59:53.154Z,107.53
2022-10-11T11:02:40.645Z,113.05
2022-10-11T11:05:40.811Z,60.38
2022-10-11T11:08:16.593Z,45.05
2022-10-11T11:10:55.790Z,44.38
2022-10-11T11:13:41.404Z,35.17
2022-10-11T11:16:13.198Z,21.98
2022-10-11T11:19:03.816Z,16.02
2022-10-11T11:21:59.344Z,11.20
2022-10-11T11:24:28.553Z,10.23
2022-10-11T11:27:23.811Z,7.57
2022-10-11T11:30:03.456Z,5.07
2022-10-11T11:32:45.548Z,5.75
2022-10-11T11:35:43.939Z,4.40
2022-10-11T11:38:20.890Z,4.00
2022-10-11T11:40:58.488Z,3.83
2022-10-11T11:43:39.445Z,4.03
2022-10-11T11:46:16.001Z,4.78
2022-10-11T11:48:43.973Z,5.13
2022-10-11T11:51:26.490Z,4.13
2022-10-11T11:53:59.096Z,4.30
2022-10-11T11:56:44.542Z,4.40
2022-10-11T11:59:14.049Z,4.90
2022-10-11T12:01:48.025Z,4.70
2022-10-11T12:04:31.188Z,4.35
2022-10-11T12:07:18.567Z,4.38
2022-10-11T12:09:52.654Z,4.35
2022-10-11T12:12:37.377Z,4.50
2022-10-11T12:15:10.204Z,4.38
2022-10-11T12:17:54.779Z,4.60
2022-10-11T12:20:21.325Z,4.13
2022-10-11T12:22:53.860Z,4.47
2022-10-11T12:25:23.872Z,4.13
2022-10-11T12:27:56.589Z,3.92
2022-10-11T12:30:48.112Z,4.10
2022-10-11T12:33:22.764Z,3.88
2022-10-11T12:35:55.546Z,4.50
2022-10-11T12:38:39.987Z,6.22
2022-10-11T12:41:09.477Z,7.68
2022-10-11T12:44:15.019Z,5.30
2022-10-11T12:46:57.847Z,5.10
2022-10-11T12:49:36.850Z,4.78
2022-10-11T12:52:22.389Z,4.18
2022-10-11T12:55:01.088Z,4.00
2022-10-11T12:57:56.081Z,3.70
2022-10-11T13:00:30.833Z,4.00
2022-10-11T13:03:33.308Z,3.20
2022-10-11T13:06:09.995Z,3.65
2022-10-11T13:08:40.756Z,4.13
2022-10-11T13:11:17.490Z,3.88
2022-10-11T13:13:49.118Z,3.70
2022-10-11T13:16:21.425Z,3.78
2022-10-11T13:18:53.672Z,3.70
2022-10-11T13:21:27.175Z,3.45
2022-10-11T13:24:03.770Z,4.97
2022-10-11T13:26:31.717Z,5.53
2022-10-11T13:29:00.192Z,6.43
2022-10-11T13:31:27.797Z,6.95
2022-10-11T13:33:56.870Z,6.70
2022-10-11T13:36:26.924Z,6.22
2022-10-11T13:38:59.187Z,6.25
2022-10-11T13:41:28.238Z,5.15
2022-10-11T13:43:56.770Z,6.67
2022-10-11T13:46:28.417Z,5.40
2022-10-11T13:49:06.595Z,5.70
2022-10-11T13:51:35.495Z,4.82
2022-10-11T13:54:11.771Z,5.43
2022-10-11T13:56:49.529Z,5.32
2022-10-11T13:59:22.926Z,6.50
2022-10-11T14:01:54.214Z,5.55
2022-10-11T14:04:22.031Z,4.10
2022-10-11T14:07:02.412Z,3.53
2022-10-11T14:09:31.329Z,3.95
2022-10-11T14:12:29.120Z,4.03
2022-10-11T14:14:55.679Z,3.80
2022-10-11T14:17:32.779Z,3.50
2022-10-11T14:20:11.875Z,5.30
2022-10-11T14:22:38.947Z,7.18
2022-10-11T14:25:05.848Z,7.97
2022-10-11T14:27:32.877Z,10.35
2022-10-11T14:30:24.658Z,9.23
2022-10-11T14:32:49.498Z,8.68
2022-10-11T14:35:18.361Z,10.10
2022-10-11T14:37:45.927Z,16.55
2022-10-11T14:40:16.642Z,12.55
2022-10-11T14:42:43.942Z,27.80
2022-10-11T14:45:11.122Z,21.60
2022-10-11T14:47:42.758Z,22.20
2022-10-11T14:50:37.650Z,12.82
2022-10-11T14:53:05.882Z,19.90
2022-10-11T14:55:32.571Z,17.45
2022-10-11T14:57:59.148Z,9.40
2022-10-11T15:00:27.647Z,9.88
2022-10-11T15:02:55.315Z,10.25
2022-10-11T15:05:24.105Z,10.73
2022-10-11T15:07:50.862Z,8.90
2022-10-11T15:10:30.284Z,13.50
2022-10-11T15:12:58.051Z,11.00
2022-10-11T15:15:30.347Z,9.00
2022-10-11T15:17:58.930Z,13.07
2022-10-11T15:20:35.159Z,14.43
2022-10-11T15:23:01.842Z,14.65
2022-10-11T15:25:29.256Z,15.35
2022-10-11T15:27:56.450Z,15.30
2022-10-11T15:30:41.887Z,16.00
2022-10-11T15:33:08.546Z,14.38
2022-10-11T15:35:35.122Z,8.43
2022-10-11T15:38:01.707Z,16.73
2022-10-11T15:40:35.866Z,11.47
2022-10-11T15:43:03.087Z,13.45
2022-10-11T15:45:29.723Z,10.90
2022-10-11T15:47:56.926Z,11.82
2022-10-11T15:50:43.735Z,8.02
2022-10-11T15:53:26.328Z,9.23
2022-10-11T15:55:55.242Z,7.63
2022-10-11T15:58:27.462Z,8.63
2022-10-11T16:00:56.001Z,9.30
2022-10-11T16:03:25.469Z,6.95
2022-10-11T16:05:53.639Z,12.80
2022-10-11T16:08:20.821Z,9.52
2022-10-11T16:10:47.606Z,9.27
2022-10-11T16:13:14.476Z,13.82
2022-10-11T16:15:42.969Z,12.43
2022-10-11T16:18:12.694Z,13.75
2022-10-11T16:20:44.841Z,16.63
2022-10-11T16:23:12.841Z,13.60
2022-10-11T16:25:41.194Z,11.85
2022-10-11T16:28:09.252Z,13.60
2022-10-11T16:30:39.509Z,13.00
2022-10-11T16:33:06.157Z,12.88
2022-10-11T16:35:32.911Z,18.75
2022-10-11T16:38:00.918Z,18.55
2022-10-11T16:40:29.909Z,15.10
2022-10-11T16:42:56.533Z,21.23
2022-10-11T16:45:23.508Z,26.98
2022-10-11T16:47:50.204Z,47.53
2022-10-11T16:50:16.739Z,25.85
2022-10-11T16:52:43.281Z,44.37
2022-10-11T16:55:09.887Z,24.95
2022-10-11T16:57:37.776Z,39.50
2022-10-11T17:00:09.206Z,29.67
2022-10-11T17:02:36.680Z,19.45
2022-10-11T17:05:03.877Z,19.27
2022-10-11T17:07:31.299Z,30.20
2022-10-11T17:09:58.272Z,32.45
2022-10-11T17:12:24.986Z,29.77
2022-10-11T17:14:51.541Z,41.63
2022-10-11T17:17:20.613Z,53.63
2022-10-11T17:19:47.627Z,65.90
2022-10-11T17:22:17.668Z,97.97
2022-10-11T17:24:45.101Z,121.78
2022-10-11T17:27:11.674Z,156.63
2022-10-11T17:29:38.688Z,157.85
2022-10-11T17:32:05.697Z,175.50
2022-10-11T17:34:32.459Z,162.52
2022-10-11T17:36:59.098Z,157.82
2022-10-11T17:39:25.828Z,152.23
2022-10-11T17:41:52.773Z,184.05
2022-10-11T17:44:20.096Z,203.07
2022-10-11T17:46:47.502Z,185.48
2022-10-11T17:49:14.074Z,205.30
2022-10-11T17:51:41.578Z,206.73
2022-10-11T17:54:13.262Z,224.17
2022-10-11T17:56:41.634Z,211.65
2022-10-11T17:59:14.384Z,236.27
2022-10-11T18:01:41.148Z,213.32
2022-10-11T18:04:13.383Z,207.90
2022-10-11T18:06:40.097Z,226.82
2022-10-11T18:09:07.144Z,236.20
2022-10-11T18:11:34.064Z,228.00
2022-10-11T18:14:00.841Z,249.93
2022-10-11T18:16:29.645Z,230.40
2022-10-11T18:18:57.448Z,244.27
2022-10-11T18:21:33.726Z,258.30
2022-10-11T18:24:03.114Z,246.20
2022-10-11T18:26:30.920Z,249.02
2022-10-11T18:28:58.655Z,234.90
2022-10-11T18:31:28.639Z,238.70
2022-10-11T18:33:55.695Z,248.33
2022-10-11T18:36:25.561Z,263.75
2022-10-11T18:38:54.917Z,240.13
2022-10-11T18:41:23.472Z,246.90
2022-10-11T18:43:52.130Z,256.08
2022-10-11T18:46:19.537Z,242.40
2022-10-11T18:48:48.596Z,252.83
2022-10-11T18:51:23.857Z,249.70
2022-10-11T18:53:51.503Z,247.68
2022-10-11T18:56:21.726Z,253.23
2022-10-11T18:58:50.254Z,245.03
2022-10-11T19:01:23.776Z,251.75
2022-10-11T19:03:53.126Z,259.63
2022-10-11T19:06:22.497Z,265.17
2022-10-11T19:08:52.841Z,255.20
2022-10-11T19:11:25.229Z,265.17
2022-10-11T19:13:57.185Z,246.55
2022-10-11T19:16:24.616Z,241.05
2022-10-11T19:18:52.299Z,244.82
2022-10-11T19:21:19.617Z,242.35
2022-10-11T19:23:47.809Z,243.63
2022-10-11T19:26:18.723Z,253.67
2022-10-11T19:28:47.053Z,242.97
2022-10-11T19:31:16.839Z,258.55
2022-10-11T19:33:45.237Z,263.95
2022-10-11T19:36:13.933Z,275.40
2022-10-11T19:38:45.473Z,248.18
2022-10-11T19:41:13.199Z,268.55
2022-10-11T19:43:39.824Z,261.85
2022-10-11T19:46:09.999Z,283.35
2022-10-11T19:48:42.708Z,268.30
2022-10-11T19:51:18.619Z,275.75
2022-10-11T19:53:46.065Z,273.73
2022-10-11T19:56:15.958Z,274.38
2022-10-11T19:58:43.020Z,267.10
2022-10-11T20:01:17.539Z,281.98
2022-10-11T20:03:47.050Z,279.40
2022-10-11T20:06:14.439Z,275.70
2022-10-11T20:08:40.990Z,280.08
2022-10-11T20:11:09.265Z,291.48
2022-10-11T20:13:37.268Z,266.75
2022-10-11T20:16:10.311Z,283.35
2022-10-11T20:18:37.858Z,291.00
2022-10-11T20:21:07.769Z,292.17
2022-10-11T20:23:35.627Z,288.90
2022-10-11T20:26:15.853Z,293.90
2022-10-11T20:28:43.797Z,287.33
2022-10-11T20:31:16.338Z,287.27
2022-10-11T20:33:42.972Z,283.73
2022-10-11T20:36:12.062Z,276.55
2022-10-11T20:38:41.058Z,291.65
2022-10-11T20:41:22.300Z,294.60
2022-10-11T20:43:54.281Z,282.92
2022-10-11T20:46:23.936Z,284.30
2022-10-11T20:48:55.513Z,291.80
2022-10-11T20:51:26.302Z,306.85
2022-10-11T20:53:53.488Z,306.83
2022-10-11T20:56:21.298Z,302.58
2022-10-11T20:58:52.132Z,311.17
2022-10-11T21:01:21.074Z,300.73
2022-10-11T21:03:47.682Z,314.55
2022-10-11T21:06:14.429Z,322.17
2022-10-11T21:08:41.233Z,320.48
2022-10-11T21:11:08.643Z,326.20
2022-10-11T21:13:36.037Z,317.30
2022-10-11T21:16:04.625Z,326.00
2022-10-11T21:18:31.143Z,328.43
2022-10-11T21:20:57.760Z,320.85
2022-10-11T21:23:24.331Z,337.08
2022-10-11T21:25:51.078Z,343.92
2022-10-11T21:28:17.655Z,352.23
2022-10-11T21:30:44.137Z,339.80
2022-10-11T21:33:13.191Z,339.10
2022-10-11T21:35:40.393Z,296.30
2022-10-11T21:38:07.144Z,293.38
2022-10-11T21:40:37.805Z,299.33
2022-10-11T21:43:04.406Z,314.17
2022-10-11T21:45:30.947Z,314.80
2022-10-11T21:47:57.505Z,334.60
2022-10-11T21:50:24.065Z,346.08
2022-10-11T21:52:50.673Z,333.08
2022-10-11T21:55:17.239Z,348.75
2022-10-11T21:57:43.902Z,341.85
2022-10-11T22:00:11.206Z,319.63
2022-10-11T22:02:40.428Z,323.15
2022-10-11T22:05:07.105Z,312.88
2022-10-11T22:07:33.746Z,320.45
2022-10-11T22:10:00.374Z,319.00
2022-10-11T22:12:26.895Z,335.20
2022-10-11T22:14:53.461Z,330.05
2022-10-11T22:17:20.139Z,343.38
2022-10-11T22:19:46.678Z,337.30
2022-10-11T22:22:13.425Z,340.30
2022-10-11T22:24:40.014Z,338.50
2022-10-11T22:27:06.605Z,326.90
2022-10-11T22:29:34.317Z,319.00
2022-10-11T22:32:01.327Z,331.02
2022-10-11T22:34:31.702Z,341.80
2022-10-11T22:36:58.504Z,340.33
2022-10-11T22:39:25.178Z,333.58
2022-10-11T22:41:54.422Z,352.97
2022-10-11T22:44:21.300Z,340.65
2022-10-11T22:46:47.935Z,355.35
2022-10-11T22:49:14.459Z,362.88
2022-10-11T22:51:40.930Z,362.30
2022-10-11T22:54:07.492Z,370.77
2022-10-11T22:56:34.033Z,367.42
2022-10-11T22:59:00.581Z,362.48
2022-10-11T23:01:27.195Z,365.48
2022-10-11T23:03:53.930Z,371.98
2022-10-11T23:06:20.642Z,368.13
2022-10-11T23:08:47.359Z,349.88
2022-10-11T23:11:14.022Z,364.48
2022-10-11T23:13:40.613Z,359.88
2022-10-11T23:16:09.711Z,368.77
2022-10-11T23:18:36.842Z,366.17
2022-10-11T23:21:04.708Z,359.00
2022-10-11T23:23:31.277Z,357.60
2022-10-11T23:26:11.527Z,361.42
2022-10-11T23:28:38.224Z,360.33
2022-10-11T23:31:11.493Z,367.02
2022-10-11T23:33:38.509Z,367.58
2022-10-11T23:36:05.627Z,373.35
2022-10-11T23:38:32.505Z,384.38
2022-10-11T23:40:59.379Z,386.40
2022-10-11T23:43:25.925Z,379.77
2022-10-11T23:45:54.005Z,374.58
2022-10-11T23:48:20.555Z,368.27
2022-10-11T23:50:47.120Z,369.85
2022-10-11T23:53:13.782Z,372.02
2022-10-11T23:55:40.597Z,377.42
2022-10-11T23:58:07.179Z,372.10
